createdAt,value
2018-07-16T00:02:23.814Z,89.30
2018-07-16T00:04:58.029Z,89.60
2018-07-16T00:07:31.806Z,89.90
2018-07-16T00:10:06.214Z,89.20
2018-07-16T00:12:40.075Z,89.50
2018-07-16T00:15:14.036Z,90.00
2018-07-16T00:17:48.000Z,90.00
2018-07-16T00:20:21.847Z,90.40
2018-07-16T00:22:55.958Z,90.40
2018-07-16T00:25:29.859Z,90.50
2018-07-16T00:28:04.231Z,90.80
2018-07-16T00:30:38.064Z,90.70
2018-07-16T00:33:11.939Z,91.10
2018-07-16T00:35:46.099Z,91.00
2018-07-16T00:38:20.255Z,91.10
2018-07-16T00:40:53.959Z,91.50
2018-07-16T00:43:27.939Z,91.80
2018-07-16T00:46:01.882Z,91.80
2018-07-16T00:48:35.778Z,91.80
2018-07-16T00:51:09.903Z,91.90
2018-07-16T00:53:43.949Z,92.40
2018-07-16T00:56:18.137Z,92.10
2018-07-16T00:58:51.992Z,92.30
2018-07-16T01:01:25.938Z,92.40
2018-07-16T01:04:00.346Z,92.80
2018-07-16T01:06:34.460Z,92.70
2018-07-16T01:09:09.018Z,92.70
2018-07-16T01:11:43.098Z,92.70
2018-07-16T01:14:17.293Z,92.90
2018-07-16T01:16:51.195Z,92.90
2018-07-16T01:19:25.214Z,93.00
2018-07-16T01:21:59.965Z,93.10
2018-07-16T01:24:33.883Z,93.10
2018-07-16T01:27:08.002Z,93.00
2018-07-16T01:29:42.075Z,93.20
2018-07-16T01:32:15.993Z,93.40
2018-07-16T01:34:49.805Z,93.50
2018-07-16T01:37:23.871Z,93.60
2018-07-16T01:39:57.964Z,93.80
2018-07-16T01:42:32.194Z,93.90
2018-07-16T01:45:07.183Z,93.80
2018-07-16T01:47:41.235Z,93.90
2018-07-16T01:52:49.390Z,93.80
2018-07-16T01:55:23.422Z,93.90
2018-07-16T01:57:57.440Z,94.10
2018-07-16T02:00:31.460Z,94.40
2018-07-16T02:03:05.535Z,94.30
2018-07-16T02:05:39.655Z,94.20
2018-07-16T02:08:13.665Z,94.10
2018-07-16T02:10:47.684Z,94.30
2018-07-16T02:13:21.908Z,94.50
2018-07-16T02:15:55.726Z,94.10
2018-07-16T02:18:29.792Z,94.40
2018-07-16T02:21:03.748Z,94.50
2018-07-16T02:23:37.763Z,94.50
2018-07-16T02:26:11.783Z,94.60
2018-07-16T02:28:45.779Z,94.80
2018-07-16T02:31:19.790Z,94.80
2018-07-16T02:33:53.799Z,94.90
2018-07-16T02:36:28.066Z,95.00
2018-07-16T02:39:02.355Z,95.30
2018-07-16T02:41:36.283Z,95.60
2018-07-16T02:44:10.365Z,95.60
2018-07-16T02:46:44.784Z,95.60
2018-07-16T02:49:18.910Z,95.60
2018-07-16T02:51:52.994Z,95.80
2018-07-16T02:54:27.211Z,95.90
2018-07-16T02:57:01.133Z,95.90
2018-07-16T02:59:35.292Z,95.70
2018-07-16T03:02:09.730Z,95.80
2018-07-16T03:04:43.541Z,95.80
2018-07-16T03:07:17.687Z,95.90
2018-07-16T03:09:51.609Z,95.90
2018-07-16T03:12:25.883Z,95.80
2018-07-16T03:14:59.734Z,95.90
2018-07-16T03:17:34.044Z,96.00
2018-07-16T03:20:08.239Z,96.00
2018-07-16T03:22:42.274Z,95.90
2018-07-16T03:25:17.038Z,96.00
2018-07-16T03:27:51.521Z,96.20
2018-07-16T03:30:25.503Z,96.20
2018-07-16T03:32:59.325Z,96.10
2018-07-16T03:35:33.534Z,96.10
2018-07-16T03:38:08.045Z,96.10
2018-07-16T03:40:41.999Z,96.00
2018-07-16T03:43:16.065Z,95.90
2018-07-16T03:45:50.050Z,95.70
2018-07-16T03:48:24.039Z,95.80
2018-07-16T03:50:58.084Z,95.80
2018-07-16T03:53:32.334Z,95.90
2018-07-16T03:56:06.141Z,95.90
2018-07-16T03:58:40.344Z,95.90
2018-07-16T04:01:14.511Z,96.00
2018-07-16T04:03:48.347Z,96.00
2018-07-16T04:06:22.700Z,96.00
2018-07-16T04:08:56.910Z,96.00
2018-07-16T04:11:30.858Z,96.00
2018-07-16T04:14:04.854Z,96.10
2018-07-16T04:16:38.894Z,96.30
2018-07-16T04:19:12.654Z,96.10
2018-07-16T04:24:20.825Z,95.80
2018-07-16T04:26:54.819Z,95.80
2018-07-16T04:29:28.698Z,95.70
2018-07-16T04:32:07.418Z,95.60
2018-07-16T04:34:41.435Z,95.70
2018-07-16T04:37:15.329Z,95.80
2018-07-16T04:39:49.322Z,96.30
2018-07-16T04:42:23.270Z,96.00
2018-07-16T04:44:57.047Z,96.00
2018-07-16T04:47:31.345Z,96.10
2018-07-16T04:50:05.510Z,96.00
2018-07-16T04:52:39.566Z,96.00
2018-07-16T04:55:13.598Z,95.90
2018-07-16T04:57:47.701Z,96.00
2018-07-16T05:00:21.603Z,96.10
2018-07-16T05:02:55.405Z,96.10
2018-07-16T05:05:29.434Z,96.10
2018-07-16T05:10:37.730Z,95.80
2018-07-16T05:13:11.844Z,95.70
2018-07-16T05:15:45.553Z,95.60
2018-07-16T05:18:19.649Z,95.60
2018-07-16T05:20:53.495Z,95.60
2018-07-16T05:23:27.485Z,95.60
2018-07-16T05:26:01.415Z,95.30
2018-07-16T05:28:35.333Z,95.40
2018-07-16T05:31:09.147Z,95.20
2018-07-16T05:33:43.044Z,95.30
2018-07-16T05:36:17.119Z,95.20
2018-07-16T05:38:50.903Z,95.10
2018-07-16T05:41:24.856Z,95.00
2018-07-16T05:43:58.771Z,95.50
2018-07-16T05:46:32.895Z,94.80
2018-07-16T05:51:40.996Z,95.00
2018-07-16T05:54:15.154Z,94.80
2018-07-16T05:56:49.184Z,94.10
2018-07-16T05:59:23.210Z,94.20
2018-07-16T06:01:57.145Z,94.00
2018-07-16T06:04:30.936Z,93.70
2018-07-16T06:07:04.844Z,93.10
2018-07-16T06:09:38.638Z,92.80
2018-07-16T06:12:12.521Z,92.40
2018-07-16T06:14:46.420Z,91.90
2018-07-16T06:17:20.152Z,87.50
2018-07-16T06:19:54.264Z,83.20
2018-07-16T06:22:28.694Z,82.90
2018-07-16T06:25:02.739Z,81.90
2018-07-16T06:27:41.119Z,79.30
2018-07-16T06:30:15.065Z,78.40
2018-07-16T06:32:48.795Z,77.10
2018-07-16T06:35:22.724Z,76.30
2018-07-16T06:37:56.747Z,74.90
2018-07-16T06:40:30.951Z,74.90
2018-07-16T06:43:05.076Z,73.30
2018-07-16T06:45:39.099Z,72.50
2018-07-16T06:48:12.999Z,71.90
2018-07-16T06:50:47.024Z,71.00
2018-07-16T06:53:21.055Z,70.00
2018-07-16T06:55:55.019Z,69.60
2018-07-16T06:58:29.187Z,69.20
2018-07-16T07:01:03.216Z,69.80
2018-07-16T07:03:37.076Z,69.00
2018-07-16T07:06:11.021Z,68.60
2018-07-16T07:08:45.113Z,67.20
2018-07-16T07:11:18.954Z,67.70
2018-07-16T07:13:52.772Z,67.80
2018-07-16T07:16:26.674Z,67.70
2018-07-16T07:19:00.660Z,66.80
2018-07-16T07:21:34.851Z,65.90
2018-07-16T07:24:08.995Z,66.40
2018-07-16T07:26:43.159Z,67.10
2018-07-16T07:29:17.221Z,66.60
2018-07-16T07:31:51.005Z,65.10
2018-07-16T07:34:24.986Z,66.10
2018-07-16T07:36:58.885Z,65.70
2018-07-16T07:39:32.818Z,64.70
2018-07-16T07:42:06.939Z,64.50
2018-07-16T07:47:14.951Z,63.40
2018-07-16T07:49:48.852Z,62.40
2018-07-16T07:52:22.859Z,63.00
2018-07-16T07:54:57.239Z,62.70
2018-07-16T07:57:31.395Z,62.00
2018-07-16T08:00:06.089Z,60.80
2018-07-16T08:02:40.139Z,61.40
2018-07-16T08:05:14.052Z,61.70
2018-07-16T08:07:47.906Z,60.40
2018-07-16T08:10:22.045Z,61.00
2018-07-16T08:12:56.039Z,61.60
2018-07-16T08:15:30.472Z,62.00
2018-07-16T08:18:04.576Z,61.80
2018-07-16T08:20:39.074Z,61.20
2018-07-16T08:23:12.974Z,60.00
2018-07-16T08:25:47.114Z,59.90
2018-07-16T08:28:21.545Z,60.10
2018-07-16T08:30:55.454Z,59.60
2018-07-16T08:33:29.652Z,59.90
2018-07-16T08:36:03.625Z,59.70
2018-07-16T08:38:38.059Z,59.30
2018-07-16T08:41:12.155Z,58.30
2018-07-16T08:43:46.285Z,58.60
2018-07-16T08:46:20.467Z,58.30
2018-07-16T08:48:55.020Z,59.10
2018-07-16T08:51:29.356Z,58.60
2018-07-16T08:54:03.454Z,57.90
2018-07-16T08:56:37.276Z,59.10
2018-07-16T08:59:11.263Z,57.40
2018-07-16T09:01:45.300Z,57.40
2018-07-16T09:04:19.502Z,57.40
2018-07-16T09:06:53.429Z,56.00
2018-07-16T09:09:27.337Z,56.00
2018-07-16T09:12:01.454Z,55.00
2018-07-16T09:14:35.334Z,55.70
2018-07-16T09:17:09.255Z,55.50
2018-07-16T09:19:43.135Z,55.90
2018-07-16T09:22:16.988Z,56.20
2018-07-16T09:24:50.874Z,55.10
2018-07-16T09:27:24.791Z,55.30
2018-07-16T09:29:58.821Z,56.40
2018-07-16T09:32:32.538Z,56.60
2018-07-16T09:35:06.466Z,56.50
2018-07-16T09:37:40.509Z,57.30
2018-07-16T09:40:14.633Z,56.70
2018-07-16T09:42:48.544Z,56.00
2018-07-16T09:45:22.480Z,55.00
2018-07-16T09:47:56.444Z,55.00
2018-07-16T09:50:30.949Z,55.20
2018-07-16T09:53:04.824Z,55.10
2018-07-16T09:55:38.835Z,53.40
2018-07-16T09:58:12.943Z,53.20
2018-07-16T10:00:52.290Z,52.60
2018-07-16T10:03:26.334Z,52.80
2018-07-16T10:06:00.349Z,51.80
2018-07-16T10:08:34.505Z,50.50
2018-07-16T10:11:08.545Z,52.40
2018-07-16T10:13:42.769Z,51.70
2018-07-16T10:16:16.739Z,52.00
2018-07-16T10:18:50.754Z,50.80
2018-07-16T10:21:24.536Z,51.10
2018-07-16T10:26:32.478Z,51.50
2018-07-16T10:29:06.609Z,52.50
2018-07-16T10:31:40.669Z,51.10
2018-07-16T10:34:14.624Z,50.30
2018-07-16T10:36:48.766Z,50.70
2018-07-16T10:39:22.575Z,48.90
2018-07-16T10:41:56.527Z,49.70
2018-07-16T10:44:30.415Z,50.10
2018-07-16T10:47:04.400Z,50.40
2018-07-16T10:49:38.594Z,50.10
2018-07-16T10:52:12.434Z,49.50
2018-07-16T10:54:46.601Z,48.20
2018-07-16T10:57:20.541Z,47.80
2018-07-16T10:59:55.824Z,48.80
2018-07-16T11:02:29.886Z,47.60
2018-07-16T11:05:03.943Z,48.60
2018-07-16T11:07:37.750Z,50.00
2018-07-16T11:10:11.692Z,49.00
2018-07-16T11:12:45.753Z,48.80
2018-07-16T11:15:19.809Z,48.20
2018-07-16T11:17:53.669Z,47.30
2018-07-16T11:20:27.725Z,46.00
2018-07-16T11:23:01.826Z,45.00
2018-07-16T11:28:13.705Z,45.80
2018-07-16T11:33:22.008Z,43.80
2018-07-16T11:35:55.984Z,43.40
2018-07-16T11:38:29.774Z,42.60
2018-07-16T11:41:03.744Z,43.80
2018-07-16T11:43:37.540Z,43.50
2018-07-16T11:46:11.404Z,44.50
2018-07-16T11:48:45.718Z,45.00
2018-07-16T11:51:19.494Z,44.70
2018-07-16T11:53:53.353Z,44.10
2018-07-16T11:56:27.409Z,45.20
2018-07-16T11:59:01.696Z,44.70
2018-07-16T12:01:35.655Z,45.00
2018-07-16T12:04:09.897Z,43.90
2018-07-16T12:06:43.879Z,43.90
2018-07-16T12:11:51.569Z,45.10
2018-07-16T12:14:25.874Z,44.40
2018-07-16T12:16:59.934Z,43.80
2018-07-16T12:19:33.772Z,44.10
2018-07-16T12:22:07.864Z,43.60
2018-07-16T12:24:41.964Z,43.30
2018-07-16T12:27:15.829Z,42.90
2018-07-16T12:29:49.941Z,42.40
2018-07-16T12:32:23.675Z,43.40
2018-07-16T12:34:58.040Z,42.20
2018-07-16T12:37:32.090Z,42.60
2018-07-16T12:40:06.234Z,42.00
2018-07-16T12:42:40.266Z,41.60
2018-07-16T12:45:14.489Z,41.70
2018-07-16T12:47:48.464Z,41.70
2018-07-16T12:52:56.384Z,43.60
2018-07-16T12:55:30.382Z,39.70
2018-07-16T12:58:04.894Z,40.00
2018-07-16T13:00:38.739Z,38.50
2018-07-16T13:03:13.024Z,36.00
2018-07-16T13:05:46.880Z,37.10
2018-07-16T13:08:21.075Z,37.20
2018-07-16T13:10:55.694Z,36.60
2018-07-16T13:13:29.580Z,33.00
2018-07-16T13:16:03.559Z,34.40
2018-07-16T13:18:38.432Z,32.70
2018-07-16T13:21:12.451Z,32.10
2018-07-16T13:23:46.304Z,31.90
2018-07-16T13:26:20.323Z,32.20
2018-07-16T13:28:54.227Z,30.50
2018-07-16T13:31:28.165Z,29.20
2018-07-16T13:34:02.191Z,29.70
2018-07-16T13:39:10.789Z,29.50
2018-07-16T13:41:44.711Z,30.20
2018-07-16T13:44:18.869Z,31.90
2018-07-16T13:46:52.811Z,30.80
2018-07-16T13:49:27.020Z,30.50
2018-07-16T13:52:01.278Z,28.90
2018-07-16T13:54:35.199Z,28.50
2018-07-16T13:57:09.484Z,29.80
2018-07-16T13:59:43.404Z,27.40
2018-07-16T14:02:17.519Z,27.90
2018-07-16T14:04:51.474Z,24.60
2018-07-16T14:07:25.676Z,27.00
2018-07-16T14:09:59.878Z,26.80
2018-07-16T14:12:33.925Z,26.30
2018-07-16T14:17:41.735Z,27.90
2018-07-16T14:20:16.229Z,27.50
2018-07-16T14:22:50.364Z,26.50
2018-07-16T14:25:24.479Z,26.40
2018-07-16T14:27:58.767Z,26.20
2018-07-16T14:30:32.745Z,24.90
2018-07-16T14:33:06.765Z,24.30
2018-07-16T14:35:40.936Z,24.80
2018-07-16T14:38:15.459Z,25.50
2018-07-16T14:40:49.490Z,24.70
2018-07-16T14:43:23.384Z,25.00
2018-07-16T14:45:57.379Z,24.00
2018-07-16T14:48:31.851Z,24.80
2018-07-16T14:51:05.930Z,23.90
2018-07-16T14:53:39.956Z,24.10
2018-07-16T14:56:14.095Z,24.20
2018-07-16T14:58:48.152Z,24.80
2018-07-16T15:01:22.154Z,24.40
2018-07-16T15:03:56.026Z,25.40
2018-07-16T15:06:30.040Z,24.70
2018-07-16T15:09:06.476Z,24.50
2018-07-16T15:11:40.625Z,26.00
2018-07-16T15:14:14.545Z,25.20
2018-07-16T15:16:48.573Z,26.70
2018-07-16T15:19:22.506Z,25.60
2018-07-16T15:21:56.409Z,26.40
2018-07-16T15:24:30.654Z,25.10
2018-07-16T15:27:04.911Z,25.60
2018-07-16T15:29:38.965Z,26.10
2018-07-16T15:32:12.729Z,26.80
2018-07-16T15:34:46.849Z,25.70
2018-07-16T15:37:21.469Z,25.00
2018-07-16T15:39:55.310Z,25.50
2018-07-16T15:45:03.195Z,26.50
2018-07-16T15:47:37.273Z,26.20
2018-07-16T15:50:11.164Z,26.50
2018-07-16T15:52:45.655Z,27.80
2018-07-16T15:55:19.539Z,28.60
2018-07-16T15:57:53.443Z,28.30
2018-07-16T16:00:27.422Z,29.10
2018-07-16T16:03:01.489Z,28.40
2018-07-16T16:05:38.752Z,29.40
2018-07-16T16:08:12.622Z,28.70
2018-07-16T16:10:46.675Z,28.70
2018-07-16T16:13:20.708Z,27.70
2018-07-16T16:15:54.624Z,27.50
2018-07-16T16:18:28.608Z,28.50
2018-07-16T16:21:02.802Z,27.90
2018-07-16T16:23:36.834Z,27.10
2018-07-16T16:28:44.917Z,26.70
2018-07-16T16:31:19.791Z,25.80
2018-07-16T16:33:53.893Z,26.00
2018-07-16T16:39:02.395Z,24.10
2018-07-16T16:41:36.307Z,23.00
2018-07-16T16:44:10.359Z,22.40
2018-07-16T16:46:44.423Z,22.50
2018-07-16T16:49:18.388Z,22.60
2018-07-16T16:54:26.628Z,22.90
2018-07-16T16:57:00.379Z,23.30
2018-07-16T17:02:08.159Z,24.00
2018-07-16T17:04:42.474Z,24.10
2018-07-16T17:07:16.714Z,25.30
2018-07-16T17:12:24.640Z,27.80
2018-07-16T17:14:58.826Z,27.50
2018-07-16T17:20:07.561Z,29.50
2018-07-16T17:22:42.266Z,31.30
2018-07-16T17:25:17.248Z,31.30
2018-07-16T17:27:51.433Z,31.50
2018-07-16T17:32:59.344Z,33.10
2018-07-16T17:35:33.582Z,34.60
2018-07-16T17:38:07.755Z,34.80
2018-07-16T17:40:41.763Z,35.50
2018-07-16T17:43:15.626Z,34.50
2018-07-16T17:45:49.779Z,36.30
2018-07-16T17:48:23.811Z,37.00
2018-07-16T17:50:57.721Z,36.60
2018-07-16T17:53:32.066Z,37.90
2018-07-16T17:56:06.087Z,38.40
2018-07-16T17:58:40.372Z,38.80
2018-07-16T18:01:14.757Z,39.70
2018-07-16T18:03:48.898Z,40.00
2018-07-16T18:06:23.139Z,40.90
2018-07-16T18:08:57.310Z,40.70
2018-07-16T18:11:32.138Z,40.60
2018-07-16T18:14:06.261Z,40.50
2018-07-16T18:16:40.320Z,42.40
2018-07-16T18:19:14.299Z,42.50
2018-07-16T18:21:48.426Z,43.40
2018-07-16T18:24:22.466Z,44.30
2018-07-16T18:26:56.427Z,43.20
2018-07-16T18:29:30.673Z,45.10
2018-07-16T18:32:05.033Z,45.60
2018-07-16T18:34:39.090Z,46.00
2018-07-16T18:39:47.468Z,46.40
2018-07-16T18:42:21.472Z,46.90
2018-07-16T18:44:55.507Z,47.50
2018-07-16T18:47:29.604Z,47.60
2018-07-16T18:50:04.480Z,47.70
2018-07-16T18:52:38.770Z,47.90
2018-07-16T18:55:13.228Z,48.90
2018-07-16T19:02:55.868Z,48.20
2018-07-16T19:05:30.159Z,49.30
2018-07-16T19:08:04.521Z,48.90
2018-07-16T19:10:39.429Z,49.30
2018-07-16T19:13:13.829Z,50.10
2018-07-16T19:18:22.458Z,51.00
2018-07-16T19:20:56.878Z,51.10
2018-07-16T19:23:30.945Z,51.30
2018-07-16T19:26:05.438Z,50.90
2018-07-16T19:28:39.849Z,51.50
2018-07-16T19:31:14.304Z,51.90
2018-07-16T19:33:48.376Z,52.60
2018-07-16T19:36:22.894Z,53.80
2018-07-16T19:38:57.156Z,54.00
2018-07-16T19:41:31.075Z,54.40
2018-07-16T19:44:05.024Z,55.00
2018-07-16T19:46:39.531Z,55.00
2018-07-16T19:49:13.515Z,56.10
2018-07-16T19:51:47.698Z,56.50
2018-07-16T19:54:21.645Z,57.20
2018-07-16T19:56:55.825Z,57.40
2018-07-16T19:59:29.909Z,57.90
2018-07-16T20:02:04.169Z,58.10
2018-07-16T20:04:38.491Z,58.40
2018-07-16T20:07:12.699Z,58.60
2018-07-16T20:09:46.965Z,58.90
2018-07-16T20:12:29.857Z,59.30
2018-07-16T20:15:05.159Z,60.00
2018-07-16T20:17:39.046Z,60.20
2018-07-16T20:20:13.301Z,60.50
2018-07-16T20:22:47.249Z,60.40
2018-07-16T20:25:21.504Z,60.70
2018-07-16T20:27:55.765Z,61.30
2018-07-16T20:30:29.700Z,62.20
2018-07-16T20:33:03.675Z,63.00
2018-07-16T20:35:37.590Z,63.60
2018-07-16T20:38:12.130Z,62.60
2018-07-16T20:40:46.809Z,63.80
2018-07-16T20:43:20.760Z,64.00
2018-07-16T20:45:55.095Z,64.80
2018-07-16T20:48:29.304Z,64.90
2018-07-16T20:51:03.097Z,65.70
2018-07-16T20:53:37.163Z,66.20
2018-07-16T20:56:11.228Z,67.10
2018-07-16T20:58:45.301Z,67.10
2018-07-16T21:01:19.641Z,66.90
2018-07-16T21:03:53.412Z,67.20
2018-07-16T21:06:27.511Z,67.80
2018-07-16T21:09:01.627Z,68.00
2018-07-16T21:11:35.616Z,68.70
2018-07-16T21:14:09.454Z,68.80
2018-07-16T21:16:43.359Z,69.30
2018-07-16T21:19:17.222Z,70.90
2018-07-16T21:21:51.290Z,71.80
2018-07-16T21:24:25.253Z,71.70
2018-07-16T21:26:59.214Z,71.40
2018-07-16T21:29:33.190Z,72.00
2018-07-16T21:32:07.236Z,71.80
2018-07-16T21:34:41.054Z,73.20
2018-07-16T21:37:15.474Z,73.60
2018-07-16T21:39:49.541Z,74.60
2018-07-16T21:42:23.636Z,73.10
2018-07-16T21:44:57.573Z,74.60
2018-07-16T21:47:31.715Z,74.90
2018-07-16T21:50:05.605Z,75.50
2018-07-16T21:52:39.564Z,75.90
2018-07-16T21:55:13.891Z,77.00
2018-07-16T21:57:48.056Z,77.30
2018-07-16T22:00:30.050Z,77.30
2018-07-16T22:03:04.163Z,77.70
2018-07-16T22:05:38.031Z,78.50
2018-07-16T22:08:12.024Z,78.50
2018-07-16T22:10:45.931Z,78.90
2018-07-16T22:13:19.738Z,79.70
2018-07-16T22:15:53.735Z,79.80
2018-07-16T22:18:27.831Z,80.20
2018-07-16T22:21:01.880Z,80.30
2018-07-16T22:23:35.937Z,80.60
2018-07-16T22:26:10.170Z,81.20
2018-07-16T22:28:44.172Z,81.30
2018-07-16T22:31:18.069Z,81.70
2018-07-16T22:33:52.462Z,82.20
2018-07-16T22:36:26.663Z,82.90
2018-07-16T22:39:00.413Z,82.20
2018-07-16T22:41:34.464Z,83.10
2018-07-16T22:44:08.383Z,83.80
2018-07-16T22:46:42.651Z,83.30
2018-07-16T22:49:16.483Z,83.40
2018-07-16T22:51:50.701Z,83.40
2018-07-16T22:54:24.469Z,84.20
2018-07-16T22:56:58.348Z,84.00
2018-07-16T22:59:32.234Z,84.10
2018-07-16T23:02:06.160Z,84.30
2018-07-16T23:04:40.429Z,84.00
2018-07-16T23:07:14.453Z,84.50
2018-07-16T23:09:48.471Z,84.80
2018-07-16T23:12:22.579Z,85.30
2018-07-16T23:14:56.438Z,86.20
2018-07-16T23:20:04.176Z,86.20
2018-07-16T23:22:47.394Z,86.00
2018-07-16T23:25:21.779Z,86.30
2018-07-16T23:27:55.860Z,86.70
2018-07-16T23:30:30.103Z,87.10
2018-07-16T23:33:03.965Z,87.20
2018-07-16T23:35:37.780Z,87.20
2018-07-16T23:38:11.599Z,87.40
2018-07-16T23:40:45.758Z,87.60
2018-07-16T23:43:19.732Z,87.80
2018-07-16T23:45:53.783Z,87.50
2018-07-16T23:48:28.114Z,88.50
2018-07-16T23:51:02.094Z,89.00
2018-07-16T23:53:35.963Z,88.80
2018-07-16T23:56:09.952Z,89.50
2018-07-16T23:58:44.073Z,90.00
